Time;durP1;ratioP1;P1;durP2;ratioP2;P2;SDS_P1;SDS_P2;PMS_P1;PMS_P2;Temp;Humidity;BMP_temperature;BMP_pressure;BME280_temperature;BME280_humidity;BME280_pressure;Samples;Min_cycle;Max_cycle;Signal;HPM_P1;HPM_P2
2023/09/11 00:00:37;;;;;;;5.72;4.28;;;27.70;58.20;;;;;;5029593;28;20325;-66
2023/09/11 00:03:03;;;;;;;5.55;4.38;;;27.80;58.30;;;;;;5028999;28;20029;-66
2023/09/11 00:05:29;;;;;;;6.03;4.90;;;27.70;58.20;;;;;;5030487;28;20045;-66
2023/09/11 00:07:55;;;;;;;7.15;4.82;;;27.80;58.30;;;;;;5025279;28;20031;-65
2023/09/11 00:10:21;;;;;;;6.18;4.25;;;27.70;58.20;;;;;;5034578;28;20032;-64
2023/09/11 00:12:47;;;;;;;6.32;4.70;;;27.80;58.30;;;;;;5024889;28;20042;-65
2023/09/11 00:15:13;;;;;;;5.32;4.13;;;27.70;58.20;;;;;;5024573;28;20025;-66
2023/09/11 00:17:39;;;;;;;7.47;4.75;;;27.70;58.20;;;;;;5012006;28;20060;-65
2023/09/11 00:20:09;;;;;;;6.63;4.47;;;27.80;58.30;;;;;;5022504;28;20025;-64
2023/09/11 00:22:35;;;;;;;5.82;4.43;;;27.80;58.30;;;;;;5021716;28;20430;-64
2023/09/11 00:25:01;;;;;;;5.28;4.50;;;27.80;58.30;;;;;;5006819;28;20025;-65
2023/09/11 00:27:27;;;;;;;4.82;4.30;;;27.70;58.20;;;;;;5023871;28;20424;-64
2023/09/11 00:29:53;;;;;;;5.65;5.03;;;27.70;58.20;;;;;;5024836;28;20135;-64
2023/09/11 00:32:19;;;;;;;5.53;4.43;;;27.70;58.30;;;;;;5025953;28;20046;-64
2023/09/11 00:34:45;;;;;;;5.15;4.32;;;27.70;58.20;;;;;;5024620;28;20030;-65
2023/09/11 00:37:10;;;;;;;6.53;4.93;;;27.70;58.30;;;;;;5026632;28;20404;-65
2023/09/11 00:39:36;;;;;;;5.00;4.30;;;27.70;58.30;;;;;;5012688;28;20044;-63
2023/09/11 00:42:02;;;;;;;5.00;3.92;;;27.70;58.30;;;;;;5014681;28;20041;-64
2023/09/11 00:44:29;;;;;;;5.38;4.82;;;27.70;58.30;;;;;;5027019;28;20484;-64
2023/09/11 00:46:56;;;;;;;4.75;4.25;;;27.70;58.30;;;;;;5023393;28;20536;-64
2023/09/11 00:49:23;;;;;;;6.50;4.47;;;27.60;58.20;;;;;;5005398;28;20460;-65
2023/09/11 00:51:50;;;;;;;5.35;4.30;;;27.70;58.30;;;;;;5006782;28;20026;-64
2023/09/11 00:54:21;;;;;;;6.50;5.03;;;27.70;58.30;;;;;;5036828;28;20087;-64
2023/09/11 00:56:47;;;;;;;5.97;4.45;;;27.70;58.30;;;;;;5007384;28;20026;-66
2023/09/11 00:59:14;;;;;;;6.38;4.85;;;27.70;58.30;;;;;;5008285;28;20482;-64
2023/09/11 01:01:42;;;;;;;6.38;4.53;;;27.60;58.30;;;;;;5011322;28;21140;-65
2023/09/11 01:04:08;;;;;;;5.85;5.00;;;27.70;58.30;;;;;;5003213;28;20040;-66
2023/09/11 01:06:35;;;;;;;7.30;4.97;;;27.70;58.30;;;;;;5023421;28;20413;-63
2023/09/11 01:09:02;;;;;;;6.53;4.55;;;27.60;58.30;;;;;;5002614;28;20031;-64
2023/09/11 01:11:28;;;;;;;4.82;4.32;;;27.60;58.30;;;;;;5006956;28;20079;-64
2023/09/11 01:13:56;;;;;;;5.35;4.72;;;27.60;58.30;;;;;;5001663;28;20132;-63
2023/09/11 01:16:32;;;;;;;5.10;4.57;;;27.60;58.30;;;;;;5034164;28;20029;-66
2023/09/11 01:19:27;;;;;;;6.05;5.00;;;27.60;58.30;;;;;;4994624;28;20052;-66
2023/09/11 01:22:20;;;;;;;7.28;5.18;;;27.60;58.30;;;;;;4987516;28;20042;-65
2023/09/11 01:25:06;;;;;;;5.20;4.53;;;27.60;58.30;;;;;;5007263;28;20362;-64
2023/09/11 01:28:04;;;;;;;5.88;4.78;;;27.60;58.30;;;;;;4992209;28;20124;-65
2023/09/11 01:30:30;;;;;;;5.65;4.50;;;27.60;58.30;;;;;;5008083;28;20040;-64
2023/09/11 01:32:57;;;;;;;5.68;4.85;;;27.60;58.30;;;;;;5006798;28;20109;-65
2023/09/11 01:35:23;;;;;;;5.50;4.45;;;27.60;58.40;;;;;;4998608;28;20140;-65
2023/09/11 01:37:49;;;;;;;6.07;4.90;;;27.60;58.30;;;;;;5011565;28;20049;-65
2023/09/11 01:40:15;;;;;;;5.97;5.30;;;27.60;58.40;;;;;;5018655;28;20364;-65
2023/09/11 01:42:49;;;;;;;5.35;4.85;;;27.60;58.40;;;;;;5011693;28;20077;-63
2023/09/11 01:45:17;;;;;;;5.85;4.50;;;27.60;58.40;;;;;;5005500;28;20121;-66
2023/09/11 01:47:45;;;;;;;6.38;4.88;;;27.60;58.40;;;;;;4995789;28;20065;-64
2023/09/11 01:50:15;;;;;;;5.78;5.03;;;27.60;58.40;;;;;;4986950;28;20038;-65
2023/09/11 01:52:43;;;;;;;5.95;4.85;;;27.50;58.90;;;;;;4990861;28;20045;-66
2023/09/11 01:55:09;;;;;;;5.53;4.85;;;27.60;58.40;;;;;;4988078;28;20391;-66
2023/09/11 01:57:35;;;;;;;6.60;4.85;;;27.50;58.30;;;;;;4988017;28;20097;-63
2023/09/11 02:00:01;;;;;;;6.15;5.07;;;27.50;58.30;;;;;;4972606;28;20048;-65
2023/09/11 02:02:29;;;;;;;8.73;5.82;;;27.50;58.30;;;;;;4986667;28;20022;-65
2023/09/11 02:04:55;;;;;;;7.97;5.85;;;27.50;58.30;;;;;;4990949;28;20041;-66
2023/09/11 02:07:21;;;;;;;8.00;5.45;;;27.50;58.30;;;;;;4990535;28;20022;-66
2023/09/11 02:09:47;;;;;;;5.47;4.97;;;27.60;58.40;;;;;;4977962;28;20085;-67
2023/09/11 02:12:13;;;;;;;7.30;5.40;;;27.50;58.30;;;;;;4983368;28;20257;-67
2023/09/11 02:14:39;;;;;;;6.75;4.68;;;27.50;58.30;;;;;;4981997;28;20041;-67
2023/09/11 02:17:05;;;;;;;5.63;4.95;;;27.50;58.30;;;;;;4980219;28;20100;-66
2023/09/11 02:19:32;;;;;;;6.55;4.82;;;27.50;58.30;;;;;;4984816;28;20098;-67
2023/09/11 02:21:58;;;;;;;7.18;4.85;;;27.50;58.30;;;;;;4989789;28;20034;-64
2023/09/11 02:24:24;;;;;;;6.32;4.90;;;27.50;58.30;;;;;;4990045;28;20030;-66
2023/09/11 02:26:50;;;;;;;6.57;5.07;;;27.50;58.30;;;;;;4991563;28;20085;-66
2023/09/11 02:29:16;;;;;;;6.90;5.20;;;27.50;58.30;;;;;;4987465;28;20310;-65
2023/09/11 02:31:42;;;;;;;5.85;5.03;;;27.50;58.30;;;;;;4996846;28;20969;-65
2023/09/11 02:34:07;;;;;;;7.13;5.15;;;27.50;58.90;;;;;;4990645;28;20343;-66
2023/09/11 02:36:33;;;;;;;6.05;5.20;;;27.50;58.30;;;;;;4983853;28;20035;-66
2023/09/11 02:38:59;;;;;;;6.40;5.10;;;27.50;58.40;;;;;;4989790;28;20216;-67
2023/09/11 02:41:25;;;;;;;6.30;5.22;;;27.50;58.40;;;;;;4989685;28;20078;-64
2023/09/11 02:43:51;;;;;;;5.95;5.07;;;27.50;58.40;;;;;;4991573;28;20292;-65
2023/09/11 02:46:17;;;;;;;7.07;5.22;;;27.50;58.40;;;;;;4985329;28;20022;-67
2023/09/11 02:48:49;;;;;;;8.70;5.78;;;27.50;58.40;;;;;;4998014;28;20053;-64
2023/09/11 02:51:17;;;;;;;6.40;5.10;;;27.50;58.40;;;;;;4983294;28;20468;-68
2023/09/11 02:53:43;;;;;;;11.18;5.70;;;27.50;58.40;;;;;;4981004;28;20051;-67
2023/09/11 02:56:09;;;;;;;7.13;5.15;;;27.50;58.40;;;;;;5013718;28;20113;-67
2023/09/11 02:58:35;;;;;;;5.65;5.00;;;27.40;58.30;;;;;;4984178;28;20157;-65
2023/09/11 03:01:03;;;;;;;5.65;4.80;;;27.50;58.40;;;;;;4985568;28;20046;-67
2023/09/11 03:03:29;;;;;;;7.38;5.43;;;27.40;58.40;;;;;;4990120;28;20428;-66
2023/09/11 03:06:00;;;;;;;6.75;4.70;;;27.40;58.30;;;;;;4988923;28;20033;-67
2023/09/11 03:08:26;;;;;;;6.93;5.22;;;27.40;58.30;;;;;;4979315;28;20379;-66
2023/09/11 03:11:02;;;;;;;6.93;4.97;;;27.40;58.30;;;;;;4989087;28;20374;-66
2023/09/11 03:13:28;;;;;;;5.60;4.53;;;27.40;58.30;;;;;;5000776;28;20136;-64
2023/09/11 03:15:54;;;;;;;5.72;4.93;;;27.40;58.30;;;;;;4993665;28;20463;-65
2023/09/11 03:18:20;;;;;;;6.85;5.10;;;27.40;58.30;;;;;;4974395;28;20086;-66
2023/09/11 03:20:53;;;;;;;7.63;5.43;;;27.40;58.30;;;;;;4981301;28;20133;-65
2023/09/11 03:23:21;;;;;;;8.40;5.50;;;27.40;58.30;;;;;;4977103;28;20019;-66
2023/09/11 03:25:47;;;;;;;7.10;5.25;;;27.40;58.30;;;;;;4963510;28;20041;-66
2023/09/11 03:28:14;;;;;;;7.68;5.43;;;27.40;58.40;;;;;;5012689;28;20117;-66
2023/09/11 03:30:40;;;;;;;6.07;4.68;;;27.40;58.30;;;;;;4988256;28;20030;-64
2023/09/11 03:33:06;;;;;;;7.28;5.20;;;27.40;58.30;;;;;;4984601;28;20041;-65
2023/09/11 03:35:32;;;;;;;9.35;5.60;;;27.40;58.30;;;;;;4979439;28;20051;-67
2023/09/11 03:37:58;;;;;;;6.60;5.15;;;27.40;58.40;;;;;;4988931;28;20103;-65
2023/09/11 03:40:25;;;;;;;6.65;5.20;;;27.40;58.40;;;;;;4979632;28;20030;-66
2023/09/11 03:42:51;;;;;;;7.43;5.15;;;27.30;58.30;;;;;;4985310;28;20125;-66
2023/09/11 03:45:17;;;;;;;9.10;5.50;;;27.40;58.40;;;;;;4987298;28;20453;-67
2023/09/11 03:47:42;;;;;;;8.82;5.30;;;27.40;58.40;;;;;;4984435;28;20141;-65
2023/09/11 03:50:09;;;;;;;6.68;5.45;;;27.30;58.30;;;;;;4985294;28;20470;-64
2023/09/11 03:52:35;;;;;;;7.75;5.32;;;27.40;58.40;;;;;;4992145;28;20022;-66
2023/09/11 03:55:02;;;;;;;6.53;5.25;;;27.40;58.40;;;;;;4984112;28;20045;-66
2023/09/11 03:57:28;;;;;;;8.73;4.97;;;27.30;58.30;;;;;;4988727;28;20579;-64
2023/09/11 03:59:54;;;;;;;7.50;5.18;;;27.30;58.30;;;;;;4988292;28;20434;-65
2023/09/11 04:02:20;;;;;;;8.48;5.30;;;27.40;58.40;;;;;;4995607;28;20041;-65
2023/09/11 04:04:46;;;;;;;6.15;5.20;;;27.40;58.40;;;;;;4988873;28;20339;-65
2023/09/11 04:07:12;;;;;;;7.20;5.38;;;27.30;58.30;;;;;;4981338;28;20075;-66
2023/09/11 04:09:38;;;;;;;6.78;4.78;;;27.30;58.30;;;;;;4984842;28;20109;-64
2023/09/11 04:12:04;;;;;;;6.20;5.60;;;27.30;58.30;;;;;;4985981;28;20484;-65
2023/09/11 04:14:30;;;;;;;6.88;4.82;;;27.30;58.30;;;;;;4980335;28;20034;-64
2023/09/11 04:16:56;;;;;;;7.35;4.97;;;27.30;58.40;;;;;;5000201;28;20034;-64
2023/09/11 04:19:22;;;;;;;6.63;5.22;;;27.30;58.40;;;;;;4967279;28;20115;-64
2023/09/11 04:21:48;;;;;;;6.03;5.10;;;27.30;58.30;;;;;;4983185;28;20088;-65
2023/09/11 04:24:14;;;;;;;5.32;4.82;;;27.30;58.30;;;;;;4985884;28;20804;-66
2023/09/11 04:26:43;;;;;;;6.40;5.18;;;27.30;58.40;;;;;;4988279;28;20038;-65
2023/09/11 04:29:11;;;;;;;9.30;5.20;;;27.30;58.40;;;;;;4984238;28;20450;-67
2023/09/11 04:31:39;;;;;;;6.85;5.20;;;27.30;58.60;;;;;;4965421;28;20429;-66
2023/09/11 04:34:05;;;;;;;7.85;5.93;;;27.30;58.30;;;;;;4999246;28;20018;-66
2023/09/11 04:36:31;;;;;;;6.13;5.07;;;27.30;58.40;;;;;;5005753;28;20398;-64
2023/09/11 04:38:57;;;;;;;6.03;5.20;;;27.30;58.40;;;;;;4989395;28;20161;-66
2023/09/11 04:41:23;;;;;;;5.95;4.95;;;27.20;58.30;;;;;;4987099;28;20145;-67
2023/09/11 04:43:49;;;;;;;7.22;5.20;;;27.20;58.30;;;;;;4985624;28;20117;-65
2023/09/11 04:46:16;;;;;;;6.85;5.07;;;27.20;58.30;;;;;;4984836;28;20595;-65
2023/09/11 04:48:43;;;;;;;6.40;5.30;;;27.20;58.30;;;;;;4987566;28;20081;-67
2023/09/11 04:51:09;;;;;;;6.55;5.30;;;27.20;58.30;;;;;;5010557;28;20034;-65
2023/09/11 04:53:35;;;;;;;4.80;4.32;;;27.20;58.30;;;;;;4992870;28;20036;-68
2023/09/11 04:56:02;;;;;;;6.25;5.05;;;27.20;58.30;;;;;;4985571;28;20034;-66
2023/09/11 04:58:28;;;;;;;6.50;4.97;;;27.20;58.30;;;;;;4984510;28;20049;-67
2023/09/11 05:00:54;;;;;;;6.72;6.03;;;27.20;58.30;;;;;;4986965;28;20034;-65
2023/09/11 05:03:20;;;;;;;7.82;5.00;;;27.20;58.30;;;;;;4990979;28;20057;-67
2023/09/11 05:05:49;;;;;;;5.65;4.90;;;27.20;58.30;;;;;;4985113;28;20081;-65
2023/09/11 05:08:15;;;;;;;6.63;5.63;;;27.20;58.30;;;;;;4982257;28;20017;-66
2023/09/11 05:10:42;;;;;;;6.07;5.13;;;27.20;58.30;;;;;;4979830;28;20030;-65
2023/09/11 05:13:11;;;;;;;6.32;5.38;;;27.20;58.30;;;;;;4984658;28;20041;-68
2023/09/11 05:15:37;;;;;;;6.65;4.97;;;27.20;58.30;;;;;;4986193;28;20038;-65
2023/09/11 05:18:03;;;;;;;6.53;4.82;;;27.20;58.30;;;;;;4981034;28;20350;-68
2023/09/11 05:20:30;;;;;;;6.50;4.78;;;27.20;58.30;;;;;;4980532;28;20037;-67
2023/09/11 05:22:57;;;;;;;6.38;5.63;;;27.20;58.30;;;;;;4981397;28;20744;-67
2023/09/11 05:25:24;;;;;;;7.85;5.55;;;27.20;58.30;;;;;;4988448;28;20123;-65
2023/09/11 05:27:50;;;;;;;7.90;5.45;;;27.20;58.40;;;;;;4984486;28;20030;-66
2023/09/11 05:30:16;;;;;;;6.35;5.25;;;27.20;58.40;;;;;;4986370;28;20109;-67
2023/09/11 05:32:42;;;;;;;7.40;5.55;;;27.20;58.40;;;;;;4983071;28;20163;-67
2023/09/11 05:35:08;;;;;;;8.35;5.50;;;27.20;58.40;;;;;;4982183;28;20773;-67
2023/09/11 05:37:34;;;;;;;7.85;5.88;;;27.20;58.40;;;;;;4987860;28;20242;-66
2023/09/11 05:40:00;;;;;;;7.18;5.28;;;27.20;58.40;;;;;;4993952;28;20510;-66
2023/09/11 05:42:26;;;;;;;6.10;5.50;;;27.20;58.40;;;;;;4987761;28;20033;-67
2023/09/11 05:44:52;;;;;;;8.52;5.43;;;27.20;58.50;;;;;;4985465;28;20520;-68
2023/09/11 05:47:19;;;;;;;7.50;5.13;;;27.20;58.50;;;;;;4989430;28;20355;-66
2023/09/11 05:49:46;;;;;;;7.15;5.20;;;27.20;58.50;;;;;;5027387;28;20048;-66
2023/09/11 05:52:11;;;;;;;6.45;5.38;;;27.20;58.50;;;;;;5027747;28;20302;-66
2023/09/11 05:54:37;;;;;;;5.82;4.82;;;27.20;58.50;;;;;;5012587;28;20091;-68
2023/09/11 05:57:04;;;;;;;6.20;5.38;;;27.20;58.50;;;;;;5027452;28;20317;-65
2023/09/11 05:59:30;;;;;;;6.40;5.40;;;27.20;58.50;;;;;;5026844;28;20042;-66
2023/09/11 06:01:56;;;;;;;5.55;4.95;;;27.20;58.50;;;;;;5026811;28;20025;-65
2023/09/11 06:04:22;;;;;;;6.13;5.20;;;27.20;58.50;;;;;;5007618;28;20078;-68
2023/09/11 06:06:48;;;;;;;6.75;5.60;;;27.20;58.50;;;;;;5023846;28;20029;-67
2023/09/11 06:09:14;;;;;;;9.05;5.43;;;27.20;58.50;;;;;;5019380;28;20131;-66
2023/09/11 06:11:40;;;;;;;7.43;5.22;;;27.20;58.50;;;;;;5029873;28;20299;-65
2023/09/11 06:14:07;;;;;;;6.68;5.72;;;27.20;58.50;;;;;;5021540;28;20045;-66
2023/09/11 06:16:33;;;;;;;5.60;5.03;;;27.20;58.60;;;;;;5025833;28;20095;-67
2023/09/11 06:19:00;;;;;;;6.07;4.95;;;27.20;58.60;;;;;;5021935;28;20052;-65
2023/09/11 06:21:26;;;;;;;6.60;5.15;;;27.20;58.60;;;;;;5031269;28;20631;-68
2023/09/11 06:23:52;;;;;;;6.07;5.38;;;27.20;58.60;;;;;;5019332;28;20103;-65
2023/09/11 06:26:18;;;;;;;8.07;5.75;;;27.20;58.60;;;;;;5022330;28;20425;-66
2023/09/11 06:28:44;;;;;;;9.82;5.95;;;27.20;58.70;;;;;;5026932;28;20025;-67
2023/09/11 06:31:10;;;;;;;7.22;5.13;;;27.20;58.70;;;;;;5012231;28;20029;-66
2023/09/11 06:33:36;;;;;;;7.30;5.40;;;27.20;58.70;;;;;;5020020;28;20032;-66
2023/09/11 06:36:05;;;;;;;7.63;5.22;;;27.20;58.80;;;;;;5024100;28;20041;-66
2023/09/11 06:38:31;;;;;;;7.15;5.45;;;27.20;58.70;;;;;;5029752;28;20418;-67
2023/09/11 06:40:57;;;;;;;7.95;6.35;;;27.20;58.70;;;;;;5030899;28;20187;-65
2023/09/11 06:43:23;;;;;;;7.25;5.38;;;27.20;58.70;;;;;;5033878;28;20029;-66
2023/09/11 06:45:52;;;;;;;7.90;6.05;;;27.20;58.70;;;;;;5027504;28;20029;-66
2023/09/11 06:48:18;;;;;;;6.75;5.55;;;27.20;58.70;;;;;;5020487;28;20057;-68
2023/09/11 06:50:45;;;;;;;8.40;5.22;;;27.20;58.60;;;;;;5018771;28;20056;-69
2023/09/11 06:53:11;;;;;;;7.72;5.68;;;27.20;58.60;;;;;;5025465;28;20451;-67
2023/09/11 06:55:46;;;;;;;7.10;5.40;;;27.30;58.70;;;;;;5004986;28;20180;-66
2023/09/11 06:58:13;;;;;;;7.38;5.32;;;27.20;58.50;;;;;;5025024;28;20044;-65
2023/09/11 07:00:39;;;;;;;7.10;5.80;;;27.20;58.50;;;;;;5005340;28;20440;-66
2023/09/11 07:03:06;;;;;;;8.38;5.70;;;27.20;58.50;;;;;;5025651;28;20025;-65
2023/09/11 07:05:32;;;;;;;7.97;5.60;;;27.30;58.50;;;;;;5021779;28;20021;-66
2023/09/11 07:07:58;;;;;;;7.13;5.10;;;27.30;58.50;;;;;;5020978;28;20124;-66
2023/09/11 07:10:24;;;;;;;8.05;5.60;;;27.30;58.40;;;;;;5025223;28;21655;-67
2023/09/11 07:12:50;;;;;;;5.72;4.93;;;27.30;58.40;;;;;;5039827;28;20108;-66
2023/09/11 07:15:19;;;;;;;9.52;5.38;;;27.30;58.40;;;;;;5031037;28;20032;-66
2023/09/11 07:17:48;;;;;;;6.88;5.78;;;27.30;58.30;;;;;;5023383;28;20113;-66
2023/09/11 07:20:15;;;;;;;7.40;5.25;;;27.30;58.30;;;;;;5026122;28;20377;-68
2023/09/11 07:22:41;;;;;;;5.78;4.95;;;27.30;58.30;;;;;;5004345;28;20380;-65
2023/09/11 07:25:14;;;;;;;7.53;5.22;;;27.30;58.20;;;;;;5023595;28;20122;-66
2023/09/11 07:27:40;;;;;;;5.85;5.18;;;27.30;58.20;;;;;;5025187;28;20056;-66
2023/09/11 07:30:09;;;;;;;7.93;5.82;;;27.30;58.20;;;;;;5026094;28;20117;-65
2023/09/11 07:32:35;;;;;;;7.60;4.90;;;27.40;58.30;;;;;;5030784;28;20400;-66
2023/09/11 07:35:01;;;;;;;6.18;4.93;;;27.30;58.10;;;;;;5027012;28;20536;-66
2023/09/11 07:37:27;;;;;;;5.50;4.97;;;27.30;58.10;;;;;;5024361;28;20061;-66
2023/09/11 07:39:53;;;;;;;5.63;4.75;;;27.30;58.00;;;;;;5029814;28;20021;-67
2023/09/11 07:42:19;;;;;;;6.13;4.80;;;27.30;57.90;;;;;;5030074;28;20114;-68
2023/09/11 07:44:45;;;;;;;6.88;4.90;;;27.30;57.80;;;;;;5032505;28;20108;-65
2023/09/11 07:47:12;;;;;;;5.10;4.45;;;27.30;57.70;;;;;;5026662;28;20401;-68
2023/09/11 07:49:38;;;;;;;6.28;4.72;;;27.30;57.60;;;;;;5030727;28;20407;-67
2023/09/11 07:52:04;;;;;;;5.80;4.43;;;27.30;57.50;;;;;;5022679;28;20784;-66
2023/09/11 07:54:30;;;;;;;5.82;4.20;;;27.30;57.30;;;;;;5018751;28;20468;-65
2023/09/11 07:56:56;;;;;;;5.45;4.57;;;27.30;57.20;;;;;;5036014;28;20044;-67
2023/09/11 07:59:22;;;;;;;6.38;4.32;;;27.30;57.00;;;;;;5035057;28;20037;-66
2023/09/11 08:01:48;;;;;;;6.53;4.50;;;27.40;56.90;;;;;;5032118;28;20130;-69
2023/09/11 08:04:14;;;;;;;5.25;4.47;;;27.40;56.80;;;;;;5033401;28;20116;-66
2023/09/11 08:06:40;;;;;;;6.22;4.45;;;27.40;56.80;;;;;;5028189;28;20033;-68
2023/09/11 08:09:06;;;;;;;6.72;4.53;;;27.40;56.60;;;;;;5025963;28;20554;-65
2023/09/11 08:11:34;;;;;;;5.43;4.30;;;27.40;56.40;;;;;;5023748;28;20043;-67
2023/09/11 08:14:00;;;;;;;5.57;4.30;;;27.40;56.30;;;;;;5032551;28;20400;-67
2023/09/11 08:16:26;;;;;;;6.18;4.55;;;27.40;56.20;;;;;;5030615;28;20114;-66
2023/09/11 08:18:52;;;;;;;5.97;4.15;;;27.40;56.10;;;;;;5024902;28;20420;-67
2023/09/11 08:21:19;;;;;;;6.93;4.40;;;27.40;56.00;;;;;;5033938;28;20097;-66
2023/09/11 08:23:45;;;;;;;6.95;4.00;;;27.40;55.90;;;;;;5031392;28;20033;-67
2023/09/11 08:26:11;;;;;;;6.05;4.28;;;27.40;55.90;;;;;;5016139;28;20048;-68
2023/09/11 08:28:37;;;;;;;4.95;4.10;;;27.40;55.80;;;;;;5030627;28;20123;-66
2023/09/11 08:31:03;;;;;;;7.88;4.47;;;27.40;55.80;;;;;;5028991;28;20058;-66
2023/09/11 08:33:30;;;;;;;5.47;4.28;;;27.40;55.80;;;;;;5028902;28;20055;-67
2023/09/11 08:35:56;;;;;;;6.28;4.70;;;27.50;55.80;;;;;;5032268;28;20037;-66
2023/09/11 08:38:23;;;;;;;7.60;4.03;;;27.50;56.40;;;;;;5033044;28;20022;-66
2023/09/11 08:40:49;;;;;;;5.30;4.38;;;27.50;55.80;;;;;;5029463;28;20091;-66
2023/09/11 08:43:17;;;;;;;6.68;4.75;;;27.50;55.80;;;;;;5031513;28;20045;-66
2023/09/11 08:45:43;;;;;;;5.93;4.30;;;27.50;55.70;;;;;;5016266;28;20443;-66
2023/09/11 08:48:14;;;;;;;5.88;4.70;;;27.50;55.70;;;;;;4995096;28;20068;-66
2023/09/11 08:50:50;;;;;;;4.93;4.25;;;27.50;55.70;;;;;;5030315;28;20025;-67
2023/09/11 08:53:18;;;;;;;4.13;3.70;;;27.50;55.70;;;;;;5025681;28;20142;-67
2023/09/11 08:55:47;;;;;;;4.82;3.90;;;27.50;55.60;;;;;;5015997;28;20061;-64
2023/09/11 08:58:17;;;;;;;6.68;4.78;;;27.50;55.70;;;;;;5016245;28;20073;-67
2023/09/11 09:00:43;;;;;;;7.90;4.47;;;27.50;55.70;;;;;;5034396;28;20073;-66
2023/09/11 09:03:10;;;;;;;5.47;3.97;;;27.50;55.70;;;;;;5034402;28;20491;-66
2023/09/11 09:05:36;;;;;;;5.90;4.18;;;27.50;55.70;;;;;;4998478;28;20407;-67
2023/09/11 09:08:05;;;;;;;6.03;4.05;;;27.50;55.70;;;;;;5031968;28;20030;-64
2023/09/11 09:10:31;;;;;;;7.70;4.43;;;27.50;55.70;;;;;;5041924;28;20037;-65
2023/09/11 09:12:57;;;;;;;6.38;4.25;;;27.50;55.70;;;;;;5031028;28;20110;-67
2023/09/11 09:15:24;;;;;;;5.40;4.30;;;27.50;55.70;;;;;;5027312;28;20052;-64
2023/09/11 09:17:50;;;;;;;6.13;4.47;;;27.50;55.70;;;;;;5024863;28;20056;-67
2023/09/11 09:20:17;;;;;;;4.72;3.85;;;27.50;55.70;;;;;;5027928;28;20271;-66
2023/09/11 09:22:57;;;;;;;5.47;4.00;;;27.50;55.80;;;;;;5034708;28;20021;-66
2023/09/11 09:25:24;;;;;;;5.10;4.28;;;27.50;55.80;;;;;;5036434;28;20086;-64
2023/09/11 09:27:50;;;;;;;6.57;3.90;;;27.50;55.90;;;;;;5021983;28;20099;-66
2023/09/11 09:30:30;;;;;;;7.40;4.25;;;27.50;56.00;;;;;;5022424;28;20037;-66
2023/09/11 09:32:57;;;;;;;4.82;4.03;;;27.50;56.00;;;;;;5037919;28;20104;-67
2023/09/11 09:35:26;;;;;;;5.75;3.70;;;27.50;55.90;;;;;;5026920;28;20077;-67
2023/09/11 09:37:54;;;;;;;6.18;4.00;;;27.50;56.00;;;;;;5040083;28;20476;-65
2023/09/11 09:40:31;;;;;;;5.35;4.05;;;27.60;56.00;;;;;;5019500;28;20109;-65
2023/09/11 09:42:59;;;;;;;4.32;3.80;;;27.60;55.90;;;;;;5018142;28;20025;-66
2023/09/11 09:45:37;;;;;;;6.88;4.75;;;27.60;55.90;;;;;;5041453;28;20041;-65
2023/09/11 09:48:20;;;;;;;4.85;4.00;;;27.60;55.90;;;;;;5041214;28;20151;-65
2023/09/11 09:51:00;;;;;;;4.65;3.67;;;27.60;55.90;;;;;;5038985;28;20028;-65
2023/09/11 09:53:32;;;;;;;5.60;4.18;;;27.60;56.50;;;;;;5044651;28;20032;-67
2023/09/11 09:56:03;;;;;;;5.68;4.10;;;27.60;55.90;;;;;;5042274;28;20342;-66
2023/09/11 09:58:33;;;;;;;5.13;4.15;;;27.60;56.00;;;;;;5027567;28;20721;-65
2023/09/11 10:01:05;;;;;;;5.22;4.53;;;27.60;56.00;;;;;;5037003;28;20029;-66
2023/09/11 10:03:48;;;;;;;4.18;3.50;;;27.60;56.10;;;;;;5039702;28;20044;-65
2023/09/11 10:06:29;;;;;;;4.53;3.83;;;27.60;56.10;;;;;;5026157;28;20029;-65
2023/09/11 10:09:10;;;;;;;5.65;4.22;;;27.60;56.10;;;;;;4995405;28;20034;-66
2023/09/11 10:11:37;;;;;;;4.05;3.65;;;27.60;56.10;;;;;;5015654;28;20028;-66
2023/09/11 10:14:06;;;;;;;4.60;3.95;;;27.70;56.30;;;;;;5032089;28;20018;-68
2023/09/11 10:16:32;;;;;;;4.65;3.63;;;27.60;56.20;;;;;;5033886;28;20528;-67
2023/09/11 10:18:59;;;;;;;5.55;4.10;;;27.60;56.30;;;;;;5029927;28;20045;-68
2023/09/11 10:21:26;;;;;;;4.50;3.75;;;27.70;56.40;;;;;;5040261;28;20326;-68
2023/09/11 10:23:53;;;;;;;5.13;3.78;;;27.70;56.50;;;;;;5030327;28;20023;-65
2023/09/11 10:26:47;;;;;;;5.53;4.63;;;27.70;56.60;;;;;;5039437;28;21754;-68
2023/09/11 10:29:48;;;;;;;5.53;3.70;;;27.70;56.70;;;;;;5020243;28;20148;-65
2023/09/11 10:32:23;;;;;;;4.50;3.85;;;27.70;56.80;;;;;;5039527;28;20025;-66
2023/09/11 10:34:51;;;;;;;6.00;3.92;;;27.80;56.90;;;;;;5025169;28;20428;-65
2023/09/11 10:37:20;;;;;;;5.72;3.90;;;27.80;57.00;;;;;;5037570;28;20028;-66
2023/09/11 10:39:49;;;;;;;6.22;3.92;;;27.80;56.90;;;;;;5034952;28;20049;-65
2023/09/11 10:42:16;;;;;;;4.55;3.53;;;27.80;56.90;;;;;;5022244;28;20069;-67
2023/09/11 10:44:42;;;;;;;6.05;4.35;;;27.90;56.90;;;;;;5040761;28;20105;-65
2023/09/11 10:47:11;;;;;;;4.97;3.85;;;27.90;56.90;;;;;;5022298;28;20173;-67
2023/09/11 10:49:38;;;;;;;5.47;4.18;;;27.90;56.80;;;;;;5043035;28;20025;-65
2023/09/11 10:52:08;;;;;;;6.88;3.60;;;27.90;56.80;;;;;;5044169;28;20036;-63
2023/09/11 10:54:35;;;;;;;4.78;3.88;;;27.90;56.70;;;;;;5042088;28;20047;-64
2023/09/11 10:57:02;;;;;;;4.80;4.00;;;27.90;56.70;;;;;;5043467;28;20397;-64
2023/09/11 10:59:28;;;;;;;5.05;4.05;;;28.00;56.70;;;;;;5038695;28;20045;-66
2023/09/11 11:01:56;;;;;;;4.55;3.90;;;28.00;56.60;;;;;;5031037;28;20065;-66
2023/09/11 11:04:23;;;;;;;4.90;3.88;;;28.00;56.50;;;;;;5023535;28;20033;-67
2023/09/11 11:06:53;;;;;;;4.78;3.92;;;28.00;56.50;;;;;;5016774;28;20168;-66
2023/09/11 11:09:33;;;;;;;5.15;4.07;;;28.00;56.50;;;;;;5025969;28;20033;-65
2023/09/11 11:12:02;;;;;;;4.82;3.72;;;28.00;56.30;;;;;;5042824;28;20077;-64
2023/09/11 11:14:29;;;;;;;4.20;3.40;;;28.10;56.20;;;;;;5038187;28;20353;-66
2023/09/11 11:16:59;;;;;;;4.38;3.40;;;28.00;55.90;;;;;;5031579;28;20094;-67
2023/09/11 11:19:39;;;;;;;3.60;3.17;;;28.00;55.70;;;;;;5026980;28;20689;-66
2023/09/11 11:22:08;;;;;;;4.55;3.47;;;28.00;55.50;;;;;;5040516;28;20037;-67
2023/09/11 11:24:50;;;;;;;4.00;3.38;;;28.00;55.40;;;;;;5038642;28;20025;-66
2023/09/11 11:27:16;;;;;;;4.50;3.40;;;28.00;55.20;;;;;;5027293;28;20029;-66
2023/09/11 11:29:43;;;;;;;5.30;3.42;;;28.00;55.10;;;;;;5038813;28;20099;-66
2023/09/11 11:32:10;;;;;;;3.40;3.08;;;28.00;55.00;;;;;;5035344;28;20021;-65
2023/09/11 11:34:39;;;;;;;4.82;3.30;;;28.00;54.80;;;;;;5039251;28;20021;-67
2023/09/11 11:37:05;;;;;;;4.15;3.30;;;28.00;54.70;;;;;;5042145;28;21538;-67
2023/09/11 11:39:39;;;;;;;4.30;3.20;;;28.10;54.70;;;;;;5039452;28;20117;-66
2023/09/11 11:42:07;;;;;;;5.07;3.00;;;28.10;54.50;;;;;;5045844;28;20033;-66
2023/09/11 11:44:34;;;;;;;3.75;3.15;;;28.10;54.50;;;;;;5036628;28;21591;-64
2023/09/11 11:47:01;;;;;;;3.78;2.88;;;28.00;54.40;;;;;;5034155;28;20040;-66
2023/09/11 11:49:28;;;;;;;4.25;2.80;;;28.00;54.30;;;;;;5023203;28;20124;-65
2023/09/11 11:52:00;;;;;;;4.25;3.10;;;28.00;54.30;;;;;;5020740;28;20468;-67
2023/09/11 11:54:27;;;;;;;4.45;3.33;;;28.00;54.30;;;;;;5013145;28;20353;-65
2023/09/11 11:56:55;;;;;;;4.80;3.30;;;28.10;54.30;;;;;;5019501;28;20052;-66
2023/09/11 11:59:21;;;;;;;3.30;3.00;;;28.10;54.30;;;;;;5044921;28;20118;-65
2023/09/11 12:01:47;;;;;;;4.97;2.88;;;28.10;54.30;;;;;;5011201;28;20356;-64
2023/09/11 12:04:13;;;;;;;4.20;3.00;;;28.10;54.30;;;;;;5042579;28;20025;-66
2023/09/11 12:06:39;;;;;;;4.95;3.30;;;28.10;54.30;;;;;;5039620;28;20386;-65
2023/09/11 12:09:05;;;;;;;3.42;3.00;;;28.10;54.30;;;;;;5030351;28;20075;-65
2023/09/11 12:11:31;;;;;;;3.22;2.92;;;28.10;54.20;;;;;;5046468;28;20340;-65
2023/09/11 12:13:57;;;;;;;3.88;2.92;;;28.10;54.20;;;;;;5027470;28;20121;-66
2023/09/11 12:16:23;;;;;;;5.00;3.00;;;28.10;54.20;;;;;;5043067;28;20028;-66
2023/09/11 12:18:49;;;;;;;3.67;2.90;;;28.10;54.20;;;;;;5031781;28;20037;-65
2023/09/11 12:21:15;;;;;;;3.63;2.85;;;28.10;54.10;;;;;;5041198;28;20035;-66
2023/09/11 12:23:41;;;;;;;4.30;3.08;;;28.10;54.10;;;;;;5042849;28;20033;-64
2023/09/11 12:26:07;;;;;;;3.58;2.90;;;28.10;54.20;;;;;;5045406;28;20056;-65
2023/09/11 12:28:34;;;;;;;3.95;3.00;;;28.10;54.20;;;;;;5043901;28;20033;-66
2023/09/11 12:31:00;;;;;;;4.35;3.33;;;28.10;54.20;;;;;;5022547;28;20416;-64
2023/09/11 12:33:28;;;;;;;3.67;2.80;;;28.20;54.30;;;;;;5044265;28;20709;-64
2023/09/11 12:35:55;;;;;;;3.15;2.58;;;28.10;54.10;;;;;;5045772;28;20083;-64
2023/09/11 12:38:22;;;;;;;4.32;2.90;;;28.20;54.10;;;;;;5042225;28;20041;-66
2023/09/11 12:40:50;;;;;;;3.53;2.42;;;28.20;54.00;;;;;;5042961;28;20095;-67
2023/09/11 12:43:16;;;;;;;3.42;3.10;;;28.10;54.00;;;;;;5044288;28;20025;-66
2023/09/11 12:45:42;;;;;;;3.78;3.03;;;28.20;54.00;;;;;;5035736;28;20416;-65
2023/09/11 12:48:08;;;;;;;4.10;2.72;;;28.10;53.90;;;;;;5037586;28;20077;-65
2023/09/11 12:50:35;;;;;;;4.03;2.78;;;28.20;54.00;;;;;;5031599;28;20033;-64